Addison, Texas
Current Conditions -  °F | °C
As of 5:47 PM on Monday 24 Nov 2014 (Local Time) from KADS Reporting Station
Few Clouds Few Clouds  
Wind Chill: 57°   Ceiling: Unl
Heat Index: 57°   Visibility: 13mi
Dew Point: 19°   Wind: 6mph
Humidity: 23%   Direction: 300°WNW
Pressure: 30.06"   Gusts: NA
Location:  32.95°N, 96.82°W
Report Text: KADS 242347Z 30005KT 13SM FEW230 14/M07 A3006
Loading
Personal Weather Stations






























Interactive Weather Map New forecast layout! Learn more

10-Day Weather Forecast

Advertisements
Track Severe Weather on mobile